Vane Brothers — WDC2297 — position and weather

sailwx.info

Track history (hours):
 
Tides and Currents Weather Stations Pressure Air Temp Water Temp Dewpoint Dewpoint Depression Visibility Wind Speed Wind Dir Waves Ship Positions

Vane Brothers

Owner: Vane Line Bunkering, Inc., Philadelphia, PA. More information available from US FCC via Universal Licensing System and Coast Guard Vessel Documentation Center.

Last reported at 2018-Jun-18 20:37 UTC. Time now 2018-Jun-19 12:39 UTC.
Position N 40°39' W 074°11'.

Length 24 m.

Type: Tug. MMSI: 366990810.

Date/timePositionNaut miles runAvg speedWind from/ knotsBaromVisibWave heightAir tempDewpointWater temp
2018-Jun-18 20:37N 40°39' W 074°11'1 4.3
2018-Jun-18 20:28N 40°39' W 074°10'3 5.6
2018-Jun-18 20:00N 40°39' W 074°07'3 5.4
2018-Jun-18 19:30N 40°40' W 074°04'3 6.5
2018-Jun-18 19:00N 40°42' W 074°00'3 6.3
2018-Jun-18 18:30N 40°44' W 073°58'41 4.0
2018-Jun-18 08:15N 41°07' W 073°12'41 2.2
2018-Jun-17 13:55N 40°45' W 073°58'3 6.5
2018-Jun-17 13:30N 40°43' W 073°58'3 6.3
2018-Jun-17 13:00N 40°41' W 074°02'2 4.5
2018-Jun-17 12:30N 40°39' W 074°04'2 3.3
2018-Jun-17 12:00N 40°39' W 074°06'2 3.2
2018-Jun-17 11:19N 40°39' W 074°09'1 4.3
2018-Jun-17 11:00N 40°39' W 074°11'1 0.1
2018-Jun-16 19:04N 40°38' W 074°12'1 9.7
2018-Jun-16 18:58N 40°39' W 074°11'4 8.5
2018-Jun-16 18:30N 40°39' W 074°06'2 4.0
2018-Jun-16 18:00N 40°41' W 074°05'0 0.0
2018-Jun-16 17:30N 40°41' W 074°05'0 0.0
2018-Jun-16 17:00N 40°41' W 074°05'0 0.0
2018-Jun-16 16:30N 40°41' W 074°05'0 0.0
2018-Jun-16 16:00N 40°41' W 074°05'0 0.0
2018-Jun-16 15:30N 40°41' W 074°05'0 0.0
2018-Jun-16 15:00N 40°41' W 074°05'0 0.0
2018-Jun-16 14:30N 40°41' W 074°05'0 0.8
2018-Jun-16 14:00N 40°40' W 074°04'0 0.4
2018-Jun-16 13:30N 40°40' W 074°04'0 0.4
2018-Jun-16 13:01N 40°40' W 074°05'0 0.4
2018-Jun-16 12:30N 40°41' W 074°04'0 0.3
2018-Jun-16 12:00N 40°41' W 074°04'0 0.2
2018-Jun-16 11:30N 40°40' W 074°04'0 0.1
2018-Jun-16 11:00N 40°40' W 074°04'0 0.0
2018-Jun-16 10:31N 40°40' W 074°04'1 2.0
2018-Jun-16 10:00N 40°40' W 074°04'5 9.4
2018-Jun-16 09:30N 40°39' W 074°10'5 7.7
2018-Jun-16 08:54N 40°34' W 074°13'4 0.1
2018-Jun-15 07:49N 40°38' W 074°12'2 7.1
2018-Jun-15 07:30N 40°39' W 074°09'3 6.1
2018-Jun-15 07:00N 40°39' W 074°05'2 3.2
2018-Jun-15 06:30N 40°41' W 074°05'0 0.1
2018-Jun-15 06:00N 40°41' W 074°05'0 0.0
2018-Jun-15 05:31N 40°41' W 074°05'1 2.8
2018-Jun-15 05:00N 40°39' W 074°05'510.4
2018-Jun-15 04:30N 40°38' W 074°12'0 0.4
2018-Jun-15 04:00N 40°38' W 074°12'0 0.0
2018-Jun-15 03:30N 40°38' W 074°12'0 0.0
2018-Jun-15 03:00N 40°38' W 074°12'0 0.0
2018-Jun-15 02:30N 40°38' W 074°12'0 0.0
2018-Jun-15 02:00N 40°38' W 074°12'0 0.0
2018-Jun-15 01:30N 40°38' W 074°12'0 0.0
2018-Jun-15 00:56N 40°38' W 074°12'1 0.1
2018-Jun-14 07:19N 40°37' W 074°12'2 6.3
2018-Jun-14 07:00N 40°39' W 074°11'3 6.0
2018-Jun-14 06:30N 40°39' W 074°07'3 5.8
2018-Jun-14 06:00N 40°40' W 074°03'4 8.7
2018-Jun-14 05:30N 40°43' W 073°59'4 0.1
2018-Jun-13 00:38N 40°46' W 073°57'1 8.3
2018-Jun-13 00:30N 40°45' W 073°58'4 7.1
2018-Jun-13 00:00N 40°42' W 074°00'4 7.1
2018-Jun-12 23:30N 40°40' W 074°04'3 5.5
2018-Jun-12 23:00N 40°39' W 074°07'2 4.2
2018-Jun-12 22:27N 40°39' W 074°10'8 0.6
2018-Jun-12 09:36N 40°32' W 074°15'0 0.4
2018-Jun-12 09:29N 40°32' W 074°15'7 0.2
2018-Jun-11 02:45N 40°39' W 074°11'2 5.8
2018-Jun-11 02:26N 40°39' W 074°09'2 5.3
2018-Jun-11 02:00N 40°39' W 074°06'2 3.9
2018-Jun-11 01:30N 40°40' W 074°04'0 0.1
2018-Jun-11 01:00N 40°40' W 074°04'3 5.2
2018-Jun-11 00:30N 40°41' W 074°01'4 7.3
2018-Jun-11 00:00N 40°44' W 073°58'2 0.1
2018-Jun-09 19:48N 40°46' W 073°57'2 6.8
2018-Jun-09 19:30N 40°44' W 073°58'3 6.3
2018-Jun-09 19:00N 40°41' W 074°01'3 5.3
2018-Jun-09 18:30N 40°40' W 074°03'2 4.1
2018-Jun-09 18:00N 40°39' W 074°06'2 3.3
2018-Jun-09 17:30N 40°39' W 074°08'2 3.8
2018-Jun-09 17:00N 40°39' W 074°11'1 0.0
2018-Jun-09 00:01N 40°39' W 074°11'0 7.4
2018-Jun-08 23:57N 40°39' W 074°11'3 6.3
2018-Jun-08 23:30N 40°39' W 074°07'3 5.8
2018-Jun-08 23:00N 40°40' W 074°03'4 7.1
2018-Jun-08 22:30N 40°42' W 073°60'3 6.0
2018-Jun-08 22:00N 40°45' W 073°58'  
Track history (hours):
 
Tides and Currents Weather Stations Pressure Air Temp Water Temp Dewpoint Dewpoint Depression Visibility Wind Speed Wind Dir Waves Ship Positions

Vane Brothers

Owner: Vane Line Bunkering, Inc., Philadelphia, PA. More information available from US FCC via Universal Licensing System and Coast Guard Vessel Documentation Center.

Last reported at 2018-Jun-18 20:37 UTC. Time now 2018-Jun-19 12:39 UTC.
Position N 40°39' W 074°11'.

Length 24 m.

Type: Tug. MMSI: 366990810.

Date/timePositionNaut miles runAvg speedWind from/ knotsBaromVisibWave heightAir tempDewpointWater temp
2018-Jun-18 20:37N 40°39' W 074°11'1 4.3
2018-Jun-18 20:28N 40°39' W 074°10'3 5.6
2018-Jun-18 20:00N 40°39' W 074°07'3 5.4
2018-Jun-18 19:30N 40°40' W 074°04'3 6.5
2018-Jun-18 19:00N 40°42' W 074°00'3 6.3
2018-Jun-18 18:30N 40°44' W 073°58'41 4.0
2018-Jun-18 08:15N 41°07' W 073°12'41 2.2
2018-Jun-17 13:55N 40°45' W 073°58'3 6.5
2018-Jun-17 13:30N 40°43' W 073°58'3 6.3
2018-Jun-17 13:00N 40°41' W 074°02'2 4.5
2018-Jun-17 12:30N 40°39' W 074°04'2 3.3
2018-Jun-17 12:00N 40°39' W 074°06'2 3.2
2018-Jun-17 11:19N 40°39' W 074°09'1 4.3
2018-Jun-17 11:00N 40°39' W 074°11'1 0.1
2018-Jun-16 19:04N 40°38' W 074°12'1 9.7
2018-Jun-16 18:58N 40°39' W 074°11'4 8.5
2018-Jun-16 18:30N 40°39' W 074°06'2 4.0
2018-Jun-16 18:00N 40°41' W 074°05'0 0.0
2018-Jun-16 17:30N 40°41' W 074°05'0 0.0
2018-Jun-16 17:00N 40°41' W 074°05'0 0.0
2018-Jun-16 16:30N 40°41' W 074°05'0 0.0
2018-Jun-16 16:00N 40°41' W 074°05'0 0.0
2018-Jun-16 15:30N 40°41' W 074°05'0 0.0
2018-Jun-16 15:00N 40°41' W 074°05'0 0.0
2018-Jun-16 14:30N 40°41' W 074°05'0 0.8
2018-Jun-16 14:00N 40°40' W 074°04'0 0.4
2018-Jun-16 13:30N 40°40' W 074°04'0 0.4
2018-Jun-16 13:01N 40°40' W 074°05'0 0.4
2018-Jun-16 12:30N 40°41' W 074°04'0 0.3
2018-Jun-16 12:00N 40°41' W 074°04'0 0.2
2018-Jun-16 11:30N 40°40' W 074°04'0 0.1
2018-Jun-16 11:00N 40°40' W 074°04'0 0.0
2018-Jun-16 10:31N 40°40' W 074°04'1 2.0
2018-Jun-16 10:00N 40°40' W 074°04'5 9.4
2018-Jun-16 09:30N 40°39' W 074°10'5 7.7
2018-Jun-16 08:54N 40°34' W 074°13'4 0.1
2018-Jun-15 07:49N 40°38' W 074°12'2 7.1
2018-Jun-15 07:30N 40°39' W 074°09'3 6.1
2018-Jun-15 07:00N 40°39' W 074°05'2 3.2
2018-Jun-15 06:30N 40°41' W 074°05'0 0.1
2018-Jun-15 06:00N 40°41' W 074°05'0 0.0
2018-Jun-15 05:31N 40°41' W 074°05'1 2.8
2018-Jun-15 05:00N 40°39' W 074°05'510.4
2018-Jun-15 04:30N 40°38' W 074°12'0 0.4
2018-Jun-15 04:00N 40°38' W 074°12'0 0.0
2018-Jun-15 03:30N 40°38' W 074°12'0 0.0
2018-Jun-15 03:00N 40°38' W 074°12'0 0.0
2018-Jun-15 02:30N 40°38' W 074°12'0 0.0
2018-Jun-15 02:00N 40°38' W 074°12'0 0.0
2018-Jun-15 01:30N 40°38' W 074°12'0 0.0
2018-Jun-15 00:56N 40°38' W 074°12'1 0.1
2018-Jun-14 07:19N 40°37' W 074°12'2 6.3
2018-Jun-14 07:00N 40°39' W 074°11'3 6.0
2018-Jun-14 06:30N 40°39' W 074°07'3 5.8
2018-Jun-14 06:00N 40°40' W 074°03'4 8.7
2018-Jun-14 05:30N 40°43' W 073°59'4 0.1
2018-Jun-13 00:38N 40°46' W 073°57'1 8.3
2018-Jun-13 00:30N 40°45' W 073°58'4 7.1
2018-Jun-13 00:00N 40°42' W 074°00'4 7.1
2018-Jun-12 23:30N 40°40' W 074°04'3 5.5
2018-Jun-12 23:00N 40°39' W 074°07'2 4.2
2018-Jun-12 22:27N 40°39' W 074°10'8 0.6
2018-Jun-12 09:36N 40°32' W 074°15'0 0.4
2018-Jun-12 09:29N 40°32' W 074°15'7 0.2
2018-Jun-11 02:45N 40°39' W 074°11'2 5.8
2018-Jun-11 02:26N 40°39' W 074°09'2 5.3
2018-Jun-11 02:00N 40°39' W 074°06'2 3.9
2018-Jun-11 01:30N 40°40' W 074°04'0 0.1
2018-Jun-11 01:00N 40°40' W 074°04'3 5.2
2018-Jun-11 00:30N 40°41' W 074°01'4 7.3
2018-Jun-11 00:00N 40°44' W 073°58'2 0.1
2018-Jun-09 19:48N 40°46' W 073°57'2 6.8
2018-Jun-09 19:30N 40°44' W 073°58'3 6.3
2018-Jun-09 19:00N 40°41' W 074°01'3 5.3
2018-Jun-09 18:30N 40°40' W 074°03'2 4.1
2018-Jun-09 18:00N 40°39' W 074°06'2 3.3
2018-Jun-09 17:30N 40°39' W 074°08'2 3.8
2018-Jun-09 17:00N 40°39' W 074°11'1 0.0
2018-Jun-09 00:01N 40°39' W 074°11'0 7.4
2018-Jun-08 23:57N 40°39' W 074°11'3 6.3
2018-Jun-08 23:30N 40°39' W 074°07'3 5.8
2018-Jun-08 23:00N 40°40' W 074°03'4 7.1
2018-Jun-08 22:30N 40°42' W 073°60'3 6.0
2018-Jun-08 22:00N 40°45' W 073°58'  

Dump ship's entire track history